sensor_id;sensor_type;location;lat;lon;timestamp;P1;durP1;ratioP1;P2;durP2;ratioP2
8139;SDS011;4111;50.972;7.072;2024-02-26T00:00:25;5.37;;;2.93;;
8139;SDS011;4111;50.972;7.072;2024-02-26T00:02:52;5.03;;;3.60;;
8139;SDS011;4111;50.972;7.072;2024-02-26T00:05:18;10.27;;;6.20;;
8139;SDS011;4111;50.972;7.072;2024-02-26T00:07:45;11.70;;;7.20;;
8139;SDS011;4111;50.972;7.072;2024-02-26T00:10:11;8.27;;;5.83;;
8139;SDS011;4111;50.972;7.072;2024-02-26T00:12:38;8.60;;;3.90;;
8139;SDS011;4111;50.972;7.072;2024-02-26T00:15:06;2.73;;;2.10;;
8139;SDS011;4111;50.972;7.072;2024-02-26T00:17:35;1.80;;;1.70;;
8139;SDS011;4111;50.972;7.072;2024-02-26T00:20:02;1.40;;;1.30;;
8139;SDS011;4111;50.972;7.072;2024-02-26T00:22:31;2.53;;;1.20;;
8139;SDS011;4111;50.972;7.072;2024-02-26T00:24:57;1.30;;;1.13;;
8139;SDS011;4111;50.972;7.072;2024-02-26T00:27:24;1.83;;;1.30;;
8139;SDS011;4111;50.972;7.072;2024-02-26T00:29:50;0.90;;;0.90;;
8139;SDS011;4111;50.972;7.072;2024-02-26T00:32:17;1.70;;;1.60;;
8139;SDS011;4111;50.972;7.072;2024-02-26T00:34:43;1.30;;;1.20;;
8139;SDS011;4111;50.972;7.072;2024-02-26T00:37:10;1.83;;;1.20;;
8139;SDS011;4111;50.972;7.072;2024-02-26T00:39:36;0.93;;;0.90;;
8139;SDS011;4111;50.972;7.072;2024-02-26T00:42:03;2.67;;;1.97;;
8139;SDS011;4111;50.972;7.072;2024-02-26T00:44:30;2.20;;;1.00;;
8139;SDS011;4111;50.972;7.072;2024-02-26T00:46:56;1.80;;;1.20;;
8139;SDS011;4111;50.972;7.072;2024-02-26T00:49:23;1.00;;;0.90;;
8139;SDS011;4111;50.972;7.072;2024-02-26T00:51:49;1.63;;;1.20;;
8139;SDS011;4111;50.972;7.072;2024-02-26T00:54:16;0.90;;;0.90;;
8139;SDS011;4111;50.972;7.072;2024-02-26T00:56:42;0.90;;;0.90;;
8139;SDS011;4111;50.972;7.072;2024-02-26T00:59:09;1.10;;;1.00;;
8139;SDS011;4111;50.972;7.072;2024-02-26T01:01:35;1.37;;;1.10;;
8139;SDS011;4111;50.972;7.072;2024-02-26T01:04:02;0.97;;;0.80;;
8139;SDS011;4111;50.972;7.072;2024-02-26T01:06:29;1.57;;;1.10;;
8139;SDS011;4111;50.972;7.072;2024-02-26T01:08:56;0.97;;;0.97;;
8139;SDS011;4111;50.972;7.072;2024-02-26T01:11:22;1.43;;;1.27;;
8139;SDS011;4111;50.972;7.072;2024-02-26T01:13:49;1.90;;;1.13;;
8139;SDS011;4111;50.972;7.072;2024-02-26T01:16:19;1.90;;;1.00;;
8139;SDS011;4111;50.972;7.072;2024-02-26T01:18:46;1.60;;;1.50;;
8139;SDS011;4111;50.972;7.072;2024-02-26T01:21:12;2.23;;;0.90;;
8139;SDS011;4111;50.972;7.072;2024-02-26T01:23:39;0.90;;;0.90;;
8139;SDS011;4111;50.972;7.072;2024-02-26T01:26:05;3.20;;;1.20;;
8139;SDS011;4111;50.972;7.072;2024-02-26T01:28:32;0.90;;;0.90;;
8139;SDS011;4111;50.972;7.072;2024-02-26T01:30:58;0.70;;;0.70;;
8139;SDS011;4111;50.972;7.072;2024-02-26T01:33:26;1.17;;;0.90;;
8139;SDS011;4111;50.972;7.072;2024-02-26T01:35:52;1.63;;;1.00;;
8139;SDS011;4111;50.972;7.072;2024-02-26T01:38:19;3.93;;;3.03;;
8139;SDS011;4111;50.972;7.072;2024-02-26T01:40:46;0.93;;;0.93;;
8139;SDS011;4111;50.972;7.072;2024-02-26T01:43:12;0.80;;;0.80;;
8139;SDS011;4111;50.972;7.072;2024-02-26T01:45:39;0.93;;;0.83;;
8139;SDS011;4111;50.972;7.072;2024-02-26T01:48:05;1.27;;;1.03;;
8139;SDS011;4111;50.972;7.072;2024-02-26T01:50:33;0.80;;;0.80;;
8139;SDS011;4111;50.972;7.072;2024-02-26T01:53:00;1.27;;;1.17;;
8139;SDS011;4111;50.972;7.072;2024-02-26T01:55:27;1.07;;;1.03;;
8139;SDS011;4111;50.972;7.072;2024-02-26T01:57:54;0.87;;;0.87;;
8139;SDS011;4111;50.972;7.072;2024-02-26T02:00:21;1.10;;;0.90;;
8139;SDS011;4111;50.972;7.072;2024-02-26T02:02:49;0.70;;;0.70;;
8139;SDS011;4111;50.972;7.072;2024-02-26T02:05:16;1.40;;;1.00;;
8139;SDS011;4111;50.972;7.072;2024-02-26T02:07:44;1.23;;;1.00;;
8139;SDS011;4111;50.972;7.072;2024-02-26T02:10:11;1.00;;;0.90;;
8139;SDS011;4111;50.972;7.072;2024-02-26T02:12:37;1.07;;;1.00;;
8139;SDS011;4111;50.972;7.072;2024-02-26T02:15:06;0.97;;;0.97;;
8139;SDS011;4111;50.972;7.072;2024-02-26T02:17:33;1.97;;;1.83;;
8139;SDS011;4111;50.972;7.072;2024-02-26T02:20:00;1.37;;;1.00;;
8139;SDS011;4111;50.972;7.072;2024-02-26T02:22:27;0.87;;;0.87;;
8139;SDS011;4111;50.972;7.072;2024-02-26T02:24:54;1.27;;;1.13;;
8139;SDS011;4111;50.972;7.072;2024-02-26T02:27:20;1.17;;;0.80;;
8139;SDS011;4111;50.972;7.072;2024-02-26T02:29:47;1.10;;;1.00;;
8139;SDS011;4111;50.972;7.072;2024-02-26T02:32:15;1.07;;;0.97;;
8139;SDS011;4111;50.972;7.072;2024-02-26T02:34:43;1.00;;;1.00;;
8139;SDS011;4111;50.972;7.072;2024-02-26T02:37:10;0.93;;;0.93;;
8139;SDS011;4111;50.972;7.072;2024-02-26T02:39:37;1.00;;;1.00;;
8139;SDS011;4111;50.972;7.072;2024-02-26T02:42:03;1.17;;;1.07;;
8139;SDS011;4111;50.972;7.072;2024-02-26T02:44:30;1.57;;;1.20;;
8139;SDS011;4111;50.972;7.072;2024-02-26T02:46:57;1.43;;;0.90;;
8139;SDS011;4111;50.972;7.072;2024-02-26T02:49:23;1.57;;;1.13;;
8139;SDS011;4111;50.972;7.072;2024-02-26T02:51:50;1.43;;;1.00;;
8139;SDS011;4111;50.972;7.072;2024-02-26T02:54:16;1.63;;;0.77;;
8139;SDS011;4111;50.972;7.072;2024-02-26T02:56:43;1.43;;;0.90;;
8139;SDS011;4111;50.972;7.072;2024-02-26T02:59:10;2.20;;;1.00;;
8139;SDS011;4111;50.972;7.072;2024-02-26T03:01:36;1.10;;;1.00;;
8139;SDS011;4111;50.972;7.072;2024-02-26T03:04:03;2.83;;;1.00;;
8139;SDS011;4111;50.972;7.072;2024-02-26T03:06:30;0.93;;;0.93;;
8139;SDS011;4111;50.972;7.072;2024-02-26T03:08:56;1.30;;;1.00;;
8139;SDS011;4111;50.972;7.072;2024-02-26T03:11:23;1.67;;;1.00;;
8139;SDS011;4111;50.972;7.072;2024-02-26T03:13:49;1.10;;;1.10;;
8139;SDS011;4111;50.972;7.072;2024-02-26T03:16:16;1.40;;;1.30;;
8139;SDS011;4111;50.972;7.072;2024-02-26T03:18:43;1.20;;;1.10;;
8139;SDS011;4111;50.972;7.072;2024-02-26T03:21:10;1.03;;;0.93;;
8139;SDS011;4111;50.972;7.072;2024-02-26T03:23:37;0.90;;;0.90;;
8139;SDS011;4111;50.972;7.072;2024-02-26T03:26:04;1.13;;;1.03;;
8139;SDS011;4111;50.972;7.072;2024-02-26T03:28:31;2.27;;;1.10;;
8139;SDS011;4111;50.972;7.072;2024-02-26T03:30:59;2.40;;;0.90;;
8139;SDS011;4111;50.972;7.072;2024-02-26T03:33:27;0.80;;;0.80;;
8139;SDS011;4111;50.972;7.072;2024-02-26T03:35:54;0.83;;;0.83;;
8139;SDS011;4111;50.972;7.072;2024-02-26T03:38:20;1.00;;;1.00;;
8139;SDS011;4111;50.972;7.072;2024-02-26T03:40:47;0.93;;;0.93;;
8139;SDS011;4111;50.972;7.072;2024-02-26T03:43:13;1.80;;;0.97;;
8139;SDS011;4111;50.972;7.072;2024-02-26T03:45:40;1.10;;;1.10;;
8139;SDS011;4111;50.972;7.072;2024-02-26T03:48:06;0.87;;;0.80;;
8139;SDS011;4111;50.972;7.072;2024-02-26T03:50:33;0.90;;;0.90;;
8139;SDS011;4111;50.972;7.072;2024-02-26T03:53:00;1.00;;;1.00;;
8139;SDS011;4111;50.972;7.072;2024-02-26T03:55:27;1.33;;;1.10;;
8139;SDS011;4111;50.972;7.072;2024-02-26T03:57:54;1.27;;;1.00;;
8139;SDS011;4111;50.972;7.072;2024-02-26T04:00:20;2.57;;;1.50;;
8139;SDS011;4111;50.972;7.072;2024-02-26T04:02:48;0.90;;;0.90;;
8139;SDS011;4111;50.972;7.072;2024-02-26T04:05:15;0.90;;;0.90;;
8139;SDS011;4111;50.972;7.072;2024-02-26T04:07:42;1.27;;;1.10;;
8139;SDS011;4111;50.972;7.072;2024-02-26T04:10:09;1.80;;;1.10;;
8139;SDS011;4111;50.972;7.072;2024-02-26T04:12:40;1.13;;;1.00;;
8139;SDS011;4111;50.972;7.072;2024-02-26T04:15:08;0.90;;;0.90;;
8139;SDS011;4111;50.972;7.072;2024-02-26T04:17:35;1.30;;;1.20;;
8139;SDS011;4111;50.972;7.072;2024-02-26T04:20:03;2.23;;;1.20;;
8139;SDS011;4111;50.972;7.072;2024-02-26T04:22:33;1.50;;;1.10;;
8139;SDS011;4111;50.972;7.072;2024-02-26T04:25:00;0.97;;;0.90;;
8139;SDS011;4111;50.972;7.072;2024-02-26T04:27:26;2.10;;;0.97;;
8139;SDS011;4111;50.972;7.072;2024-02-26T04:29:53;1.83;;;1.30;;
8139;SDS011;4111;50.972;7.072;2024-02-26T04:32:19;1.30;;;1.20;;
8139;SDS011;4111;50.972;7.072;2024-02-26T04:34:47;1.00;;;1.00;;
8139;SDS011;4111;50.972;7.072;2024-02-26T04:37:13;1.17;;;1.10;;
8139;SDS011;4111;50.972;7.072;2024-02-26T04:39:40;1.00;;;1.00;;
8139;SDS011;4111;50.972;7.072;2024-02-26T04:42:06;1.00;;;1.00;;
8139;SDS011;4111;50.972;7.072;2024-02-26T04:44:33;1.20;;;1.10;;
8139;SDS011;4111;50.972;7.072;2024-02-26T04:46:59;1.43;;;1.33;;
8139;SDS011;4111;50.972;7.072;2024-02-26T04:49:28;1.13;;;1.13;;
8139;SDS011;4111;50.972;7.072;2024-02-26T04:51:54;1.00;;;0.90;;
8139;SDS011;4111;50.972;7.072;2024-02-26T04:54:21;1.40;;;1.30;;
8139;SDS011;4111;50.972;7.072;2024-02-26T04:56:48;0.93;;;0.93;;
8139;SDS011;4111;50.972;7.072;2024-02-26T04:59:14;0.90;;;0.90;;
8139;SDS011;4111;50.972;7.072;2024-02-26T05:01:41;1.67;;;1.10;;
8139;SDS011;4111;50.972;7.072;2024-02-26T05:04:08;1.00;;;0.90;;
8139;SDS011;4111;50.972;7.072;2024-02-26T05:06:36;1.10;;;1.10;;
8139;SDS011;4111;50.972;7.072;2024-02-26T05:09:03;1.27;;;1.17;;
8139;SDS011;4111;50.972;7.072;2024-02-26T05:11:30;1.00;;;1.00;;
8139;SDS011;4111;50.972;7.072;2024-02-26T05:13:56;1.43;;;1.30;;
8139;SDS011;4111;50.972;7.072;2024-02-26T05:16:23;1.33;;;1.23;;
8139;SDS011;4111;50.972;7.072;2024-02-26T05:18:51;1.10;;;1.10;;
8139;SDS011;4111;50.972;7.072;2024-02-26T05:21:17;1.23;;;1.13;;
8139;SDS011;4111;50.972;7.072;2024-02-26T05:23:44;2.10;;;1.07;;
8139;SDS011;4111;50.972;7.072;2024-02-26T05:26:11;1.20;;;1.10;;
8139;SDS011;4111;50.972;7.072;2024-02-26T05:28:38;2.53;;;1.20;;
8139;SDS011;4111;50.972;7.072;2024-02-26T05:31:05;1.40;;;1.30;;
8139;SDS011;4111;50.972;7.072;2024-02-26T05:33:32;1.17;;;1.10;;
8139;SDS011;4111;50.972;7.072;2024-02-26T05:35:59;2.87;;;1.20;;
8139;SDS011;4111;50.972;7.072;2024-02-26T05:38:30;1.73;;;1.10;;
8139;SDS011;4111;50.972;7.072;2024-02-26T05:40:58;1.27;;;1.17;;
8139;SDS011;4111;50.972;7.072;2024-02-26T05:43:25;2.40;;;1.40;;
8139;SDS011;4111;50.972;7.072;2024-02-26T05:45:52;1.43;;;1.23;;
8139;SDS011;4111;50.972;7.072;2024-02-26T05:48:19;4.37;;;1.40;;
8139;SDS011;4111;50.972;7.072;2024-02-26T05:50:46;2.50;;;1.20;;
8139;SDS011;4111;50.972;7.072;2024-02-26T05:53:13;1.40;;;1.30;;
8139;SDS011;4111;50.972;7.072;2024-02-26T05:55:39;1.73;;;1.30;;
8139;SDS011;4111;50.972;7.072;2024-02-26T05:58:06;1.20;;;1.10;;
8139;SDS011;4111;50.972;7.072;2024-02-26T06:00:32;2.40;;;1.40;;
8139;SDS011;4111;50.972;7.072;2024-02-26T06:02:59;1.37;;;1.27;;
8139;SDS011;4111;50.972;7.072;2024-02-26T06:05:25;1.20;;;1.20;;
8139;SDS011;4111;50.972;7.072;2024-02-26T06:07:52;1.53;;;1.43;;
8139;SDS011;4111;50.972;7.072;2024-02-26T06:10:19;2.27;;;1.30;;
8139;SDS011;4111;50.972;7.072;2024-02-26T06:12:47;1.47;;;1.30;;
8139;SDS011;4111;50.972;7.072;2024-02-26T06:15:14;1.40;;;1.30;;
8139;SDS011;4111;50.972;7.072;2024-02-26T06:17:40;1.93;;;1.40;;
8139;SDS011;4111;50.972;7.072;2024-02-26T06:20:07;3.08;;;2.67;;
8139;SDS011;4111;50.972;7.072;2024-02-26T06:22:41;2.27;;;1.60;;
8139;SDS011;4111;50.972;7.072;2024-02-26T06:25:08;1.50;;;1.37;;
8139;SDS011;4111;50.972;7.072;2024-02-26T06:27:35;1.40;;;1.30;;
8139;SDS011;4111;50.972;7.072;2024-02-26T06:30:01;2.20;;;1.50;;
8139;SDS011;4111;50.972;7.072;2024-02-26T06:32:29;2.80;;;1.20;;
8139;SDS011;4111;50.972;7.072;2024-02-26T06:34:55;1.70;;;1.60;;
8139;SDS011;4111;50.972;7.072;2024-02-26T06:37:22;3.33;;;1.70;;
8139;SDS011;4111;50.972;7.072;2024-02-26T06:39:49;1.97;;;1.43;;
8139;SDS011;4111;50.972;7.072;2024-02-26T06:42:18;1.90;;;1.33;;
8139;SDS011;4111;50.972;7.072;2024-02-26T06:44:45;2.70;;;1.43;;
8139;SDS011;4111;50.972;7.072;2024-02-26T06:47:11;3.27;;;1.63;;
8139;SDS011;4111;50.972;7.072;2024-02-26T06:49:38;1.60;;;1.50;;
8139;SDS011;4111;50.972;7.072;2024-02-26T06:52:05;1.40;;;1.30;;
8139;SDS011;4111;50.972;7.072;2024-02-26T06:54:32;1.70;;;1.60;;
8139;SDS011;4111;50.972;7.072;2024-02-26T06:56:59;1.90;;;1.70;;
8139;SDS011;4111;50.972;7.072;2024-02-26T06:59:26;1.90;;;1.70;;
8139;SDS011;4111;50.972;7.072;2024-02-26T07:01:53;2.53;;;1.90;;
8139;SDS011;4111;50.972;7.072;2024-02-26T07:04:20;1.90;;;1.70;;
8139;SDS011;4111;50.972;7.072;2024-02-26T07:06:47;1.87;;;1.57;;
8139;SDS011;4111;50.972;7.072;2024-02-26T07:09:14;1.77;;;1.60;;
8139;SDS011;4111;50.972;7.072;2024-02-26T07:11:42;1.63;;;1.53;;
8139;SDS011;4111;50.972;7.072;2024-02-26T07:14:09;1.67;;;1.57;;
8139;SDS011;4111;50.972;7.072;2024-02-26T07:16:36;1.60;;;1.50;;
8139;SDS011;4111;50.972;7.072;2024-02-26T07:19:03;1.87;;;1.67;;
8139;SDS011;4111;50.972;7.072;2024-02-26T07:21:30;1.87;;;1.77;;
8139;SDS011;4111;50.972;7.072;2024-02-26T07:23:57;3.70;;;1.53;;
8139;SDS011;4111;50.972;7.072;2024-02-26T07:26:24;1.50;;;1.40;;
8139;SDS011;4111;50.972;7.072;2024-02-26T07:28:52;2.00;;;1.80;;
8139;SDS011;4111;50.972;7.072;2024-02-26T07:31:18;1.87;;;1.63;;
8139;SDS011;4111;50.972;7.072;2024-02-26T07:33:45;1.73;;;1.63;;
8139;SDS011;4111;50.972;7.072;2024-02-26T07:36:11;1.97;;;1.87;;
8139;SDS011;4111;50.972;7.072;2024-02-26T07:38:39;3.50;;;1.67;;
8139;SDS011;4111;50.972;7.072;2024-02-26T07:41:09;2.67;;;1.90;;
8139;SDS011;4111;50.972;7.072;2024-02-26T07:43:36;1.70;;;1.60;;
8139;SDS011;4111;50.972;7.072;2024-02-26T07:46:03;1.63;;;1.53;;
8139;SDS011;4111;50.972;7.072;2024-02-26T07:48:30;1.70;;;1.60;;
8139;SDS011;4111;50.972;7.072;2024-02-26T07:50:57;2.03;;;1.80;;
8139;SDS011;4111;50.972;7.072;2024-02-26T07:53:26;1.60;;;1.50;;
8139;SDS011;4111;50.972;7.072;2024-02-26T07:55:52;1.90;;;1.80;;
8139;SDS011;4111;50.972;7.072;2024-02-26T07:58:18;1.93;;;1.73;;
8139;SDS011;4111;50.972;7.072;2024-02-26T08:00:45;1.70;;;1.57;;
8139;SDS011;4111;50.972;7.072;2024-02-26T08:03:12;2.90;;;1.60;;
8139;SDS011;4111;50.972;7.072;2024-02-26T08:05:42;1.60;;;1.50;;
8139;SDS011;4111;50.972;7.072;2024-02-26T08:08:09;1.87;;;1.77;;
8139;SDS011;4111;50.972;7.072;2024-02-26T08:10:36;2.60;;;2.07;;
8139;SDS011;4111;50.972;7.072;2024-02-26T08:13:02;1.70;;;1.60;;
8139;SDS011;4111;50.972;7.072;2024-02-26T08:15:32;1.67;;;1.57;;
8139;SDS011;4111;50.972;7.072;2024-02-26T08:18:03;1.90;;;1.67;;
8139;SDS011;4111;50.972;7.072;2024-02-26T08:20:31;1.60;;;1.50;;
8139;SDS011;4111;50.972;7.072;2024-02-26T08:22:57;1.83;;;1.70;;
8139;SDS011;4111;50.972;7.072;2024-02-26T08:25:24;1.50;;;1.40;;
8139;SDS011;4111;50.972;7.072;2024-02-26T08:27:51;2.63;;;1.53;;
8139;SDS011;4111;50.972;7.072;2024-02-26T08:30:18;4.47;;;2.20;;
8139;SDS011;4111;50.972;7.072;2024-02-26T08:32:45;2.97;;;1.90;;
8139;SDS011;4111;50.972;7.072;2024-02-26T08:35:16;1.70;;;1.60;;
8139;SDS011;4111;50.972;7.072;2024-02-26T08:37:46;1.90;;;1.80;;
8139;SDS011;4111;50.972;7.072;2024-02-26T08:40:14;2.00;;;1.90;;
8139;SDS011;4111;50.972;7.072;2024-02-26T08:42:41;2.03;;;1.80;;
8139;SDS011;4111;50.972;7.072;2024-02-26T08:45:08;2.50;;;1.80;;
8139;SDS011;4111;50.972;7.072;2024-02-26T08:47:39;2.17;;;1.70;;
8139;SDS011;4111;50.972;7.072;2024-02-26T08:50:05;1.73;;;1.63;;
8139;SDS011;4111;50.972;7.072;2024-02-26T08:52:33;1.90;;;1.80;;
8139;SDS011;4111;50.972;7.072;2024-02-26T08:54:59;1.77;;;1.63;;
8139;SDS011;4111;50.972;7.072;2024-02-26T08:57:25;2.47;;;1.97;;
8139;SDS011;4111;50.972;7.072;2024-02-26T08:59:54;1.97;;;1.80;;
8139;SDS011;4111;50.972;7.072;2024-02-26T09:02:20;1.63;;;1.53;;
8139;SDS011;4111;50.972;7.072;2024-02-26T09:04:47;2.97;;;1.80;;
8139;SDS011;4111;50.972;7.072;2024-02-26T09:07:13;2.00;;;1.90;;
8139;SDS011;4111;50.972;7.072;2024-02-26T09:09:40;2.87;;;1.77;;
8139;SDS011;4111;50.972;7.072;2024-02-26T09:12:06;2.43;;;2.23;;
8139;SDS011;4111;50.972;7.072;2024-02-26T09:14:33;2.23;;;2.03;;
8139;SDS011;4111;50.972;7.072;2024-02-26T09:17:00;2.67;;;2.20;;
8139;SDS011;4111;50.972;7.072;2024-02-26T09:19:26;2.20;;;2.00;;
8139;SDS011;4111;50.972;7.072;2024-02-26T09:21:54;2.53;;;2.03;;
8139;SDS011;4111;50.972;7.072;2024-02-26T09:24:24;2.93;;;1.97;;
8139;SDS011;4111;50.972;7.072;2024-02-26T09:26:52;1.93;;;1.83;;
8139;SDS011;4111;50.972;7.072;2024-02-26T09:29:19;1.70;;;1.60;;
8139;SDS011;4111;50.972;7.072;2024-02-26T09:31:45;2.70;;;1.60;;
8139;SDS011;4111;50.972;7.072;2024-02-26T09:34:13;2.67;;;2.00;;
8139;SDS011;4111;50.972;7.072;2024-02-26T09:36:40;3.37;;;2.17;;
8139;SDS011;4111;50.972;7.072;2024-02-26T09:39:06;1.77;;;1.50;;
8139;SDS011;4111;50.972;7.072;2024-02-26T09:41:37;1.97;;;1.77;;
8139;SDS011;4111;50.972;7.072;2024-02-26T09:44:04;2.47;;;2.20;;
8139;SDS011;4111;50.972;7.072;2024-02-26T09:46:31;1.90;;;1.80;;
8139;SDS011;4111;50.972;7.072;2024-02-26T09:48:58;2.70;;;2.30;;
8139;SDS011;4111;50.972;7.072;2024-02-26T09:51:25;2.83;;;2.00;;
8139;SDS011;4111;50.972;7.072;2024-02-26T09:53:52;3.20;;;2.00;;
8139;SDS011;4111;50.972;7.072;2024-02-26T09:56:19;2.57;;;2.37;;
8139;SDS011;4111;50.972;7.072;2024-02-26T09:58:47;3.00;;;2.00;;
8139;SDS011;4111;50.972;7.072;2024-02-26T10:01:20;2.10;;;2.00;;
8139;SDS011;4111;50.972;7.072;2024-02-26T10:03:48;4.63;;;2.30;;
8139;SDS011;4111;50.972;7.072;2024-02-26T10:06:21;2.03;;;1.93;;
8139;SDS011;4111;50.972;7.072;2024-02-26T10:08:48;2.37;;;2.17;;
8139;SDS011;4111;50.972;7.072;2024-02-26T10:11:15;2.97;;;2.47;;
8139;SDS011;4111;50.972;7.072;2024-02-26T10:13:42;2.27;;;2.07;;
8139;SDS011;4111;50.972;7.072;2024-02-26T10:16:09;2.70;;;2.40;;
8139;SDS011;4111;50.972;7.072;2024-02-26T10:18:52;3.20;;;2.60;;
8139;SDS011;4111;50.972;7.072;2024-02-26T10:21:25;2.80;;;2.13;;
8139;SDS011;4111;50.972;7.072;2024-02-26T10:23:55;3.37;;;2.53;;
8139;SDS011;4111;50.972;7.072;2024-02-26T10:26:21;2.73;;;2.33;;
8139;SDS011;4111;50.972;7.072;2024-02-26T10:28:48;2.77;;;2.30;;
8139;SDS011;4111;50.972;7.072;2024-02-26T10:31:24;2.67;;;2.40;;
8139;SDS011;4111;50.972;7.072;2024-02-26T10:33:50;2.77;;;2.30;;
8139;SDS011;4111;50.972;7.072;2024-02-26T10:36:22;4.40;;;2.70;;
8139;SDS011;4111;50.972;7.072;2024-02-26T10:38:49;2.50;;;2.30;;
8139;SDS011;4111;50.972;7.072;2024-02-26T10:41:18;2.60;;;2.40;;
8139;SDS011;4111;50.972;7.072;2024-02-26T10:43:44;3.37;;;2.03;;
8139;SDS011;4111;50.972;7.072;2024-02-26T10:46:11;2.50;;;2.30;;
8139;SDS011;4111;50.972;7.072;2024-02-26T10:48:38;3.10;;;2.50;;
8139;SDS011;4111;50.972;7.072;2024-02-26T10:51:05;2.30;;;2.10;;
8139;SDS011;4111;50.972;7.072;2024-02-26T10:53:32;2.80;;;2.27;;
8139;SDS011;4111;50.972;7.072;2024-02-26T10:56:04;2.30;;;2.10;;
8139;SDS011;4111;50.972;7.072;2024-02-26T10:58:31;2.50;;;2.10;;
8139;SDS011;4111;50.972;7.072;2024-02-26T11:00:58;4.20;;;2.50;;
8139;SDS011;4111;50.972;7.072;2024-02-26T11:03:26;3.00;;;2.10;;
8139;SDS011;4111;50.972;7.072;2024-02-26T11:05:54;6.33;;;2.47;;
8139;SDS011;4111;50.972;7.072;2024-02-26T11:08:23;2.63;;;2.43;;
8139;SDS011;4111;50.972;7.072;2024-02-26T11:10:52;3.13;;;2.70;;
8139;SDS011;4111;50.972;7.072;2024-02-26T11:13:21;2.33;;;2.13;;
8139;SDS011;4111;50.972;7.072;2024-02-26T11:15:47;2.63;;;2.43;;
8139;SDS011;4111;50.972;7.072;2024-02-26T11:18:15;2.60;;;2.40;;
8139;SDS011;4111;50.972;7.072;2024-02-26T11:20:43;2.83;;;2.47;;
8139;SDS011;4111;50.972;7.072;2024-02-26T11:23:11;2.37;;;2.17;;
8139;SDS011;4111;50.972;7.072;2024-02-26T11:25:37;2.47;;;2.00;;
8139;SDS011;4111;50.972;7.072;2024-02-26T11:28:06;4.73;;;2.23;;
8139;SDS011;4111;50.972;7.072;2024-02-26T11:30:39;3.20;;;2.27;;
8139;SDS011;4111;50.972;7.072;2024-02-26T11:33:10;2.07;;;1.93;;
8139;SDS011;4111;50.972;7.072;2024-02-26T11:35:39;3.50;;;2.20;;
8139;SDS011;4111;50.972;7.072;2024-02-26T11:38:06;2.50;;;2.27;;
8139;SDS011;4111;50.972;7.072;2024-02-26T11:40:33;2.60;;;1.87;;
8139;SDS011;4111;50.972;7.072;2024-02-26T11:43:08;2.90;;;2.17;;
8139;SDS011;4111;50.972;7.072;2024-02-26T11:48:11;4.97;;;2.50;;
8139;SDS011;4111;50.972;7.072;2024-02-26T11:50:40;2.70;;;2.50;;
8139;SDS011;4111;50.972;7.072;2024-02-26T11:53:27;3.93;;;3.00;;
8139;SDS011;4111;50.972;7.072;2024-02-26T11:58:46;2.40;;;2.30;;
8139;SDS011;4111;50.972;7.072;2024-02-26T12:04:05;3.20;;;2.47;;
8139;SDS011;4111;50.972;7.072;2024-02-26T12:09:37;2.67;;;2.47;;
8139;SDS011;4111;50.972;7.072;2024-02-26T12:12:13;2.50;;;2.30;;
8139;SDS011;4111;50.972;7.072;2024-02-26T12:14:51;7.40;;;2.97;;
8139;SDS011;4111;50.972;7.072;2024-02-26T12:17:19;3.33;;;2.37;;
8139;SDS011;4111;50.972;7.072;2024-02-26T12:19:47;3.10;;;2.80;;
8139;SDS011;4111;50.972;7.072;2024-02-26T12:22:14;3.00;;;2.60;;
8139;SDS011;4111;50.972;7.072;2024-02-26T12:24:44;2.80;;;2.50;;
8139;SDS011;4111;50.972;7.072;2024-02-26T12:27:11;2.53;;;2.33;;
8139;SDS011;4111;50.972;7.072;2024-02-26T12:29:39;2.57;;;2.37;;
8139;SDS011;4111;50.972;7.072;2024-02-26T12:32:06;4.30;;;2.60;;
8139;SDS011;4111;50.972;7.072;2024-02-26T12:34:37;2.87;;;2.63;;
8139;SDS011;4111;50.972;7.072;2024-02-26T12:37:03;3.10;;;2.60;;
8139;SDS011;4111;50.972;7.072;2024-02-26T12:39:30;3.00;;;2.70;;
8139;SDS011;4111;50.972;7.072;2024-02-26T12:41:58;2.77;;;2.57;;
8139;SDS011;4111;50.972;7.072;2024-02-26T12:44:26;2.67;;;2.43;;
8139;SDS011;4111;50.972;7.072;2024-02-26T12:46:59;2.70;;;2.50;;
8139;SDS011;4111;50.972;7.072;2024-02-26T12:49:30;2.83;;;2.63;;
8139;SDS011;4111;50.972;7.072;2024-02-26T12:51:58;3.13;;;2.80;;
8139;SDS011;4111;50.972;7.072;2024-02-26T12:54:28;3.73;;;2.50;;
8139;SDS011;4111;50.972;7.072;2024-02-26T12:56:59;3.03;;;2.67;;
8139;SDS011;4111;50.972;7.072;2024-02-26T12:59:28;3.53;;;2.90;;
8139;SDS011;4111;50.972;7.072;2024-02-26T13:01:56;2.90;;;2.60;;
8139;SDS011;4111;50.972;7.072;2024-02-26T13:04:23;3.20;;;2.90;;
8139;SDS011;4111;50.972;7.072;2024-02-26T13:06:50;4.60;;;2.90;;
8139;SDS011;4111;50.972;7.072;2024-02-26T13:09:17;3.40;;;3.10;;
8139;SDS011;4111;50.972;7.072;2024-02-26T13:11:45;6.80;;;3.13;;
8139;SDS011;4111;50.972;7.072;2024-02-26T13:14:20;4.80;;;3.20;;
8139;SDS011;4111;50.972;7.072;2024-02-26T13:16:56;5.07;;;3.37;;
8139;SDS011;4111;50.972;7.072;2024-02-26T13:19:24;4.13;;;3.33;;
8139;SDS011;4111;50.972;7.072;2024-02-26T13:21:51;4.47;;;3.53;;
8139;SDS011;4111;50.972;7.072;2024-02-26T13:24:19;4.83;;;3.10;;
8139;SDS011;4111;50.972;7.072;2024-02-26T13:26:46;3.20;;;2.90;;
8139;SDS011;4111;50.972;7.072;2024-02-26T13:29:16;3.60;;;3.30;;
8139;SDS011;4111;50.972;7.072;2024-02-26T13:31:46;4.33;;;3.47;;
8139;SDS011;4111;50.972;7.072;2024-02-26T13:34:28;3.50;;;3.20;;
8139;SDS011;4111;50.972;7.072;2024-02-26T13:36:56;3.60;;;3.30;;
8139;SDS011;4111;50.972;7.072;2024-02-26T13:39:24;5.33;;;3.80;;
8139;SDS011;4111;50.972;7.072;2024-02-26T13:41:51;3.90;;;3.50;;
8139;SDS011;4111;50.972;7.072;2024-02-26T13:44:19;5.07;;;3.70;;
8139;SDS011;4111;50.972;7.072;2024-02-26T13:46:47;4.73;;;3.87;;
8139;SDS011;4111;50.972;7.072;2024-02-26T13:49:13;4.67;;;4.27;;
8139;SDS011;4111;50.972;7.072;2024-02-26T13:51:40;4.47;;;4.03;;
8139;SDS011;4111;50.972;7.072;2024-02-26T13:54:07;4.40;;;4.00;;
8139;SDS011;4111;50.972;7.072;2024-02-26T13:56:36;4.77;;;4.00;;
8139;SDS011;4111;50.972;7.072;2024-02-26T13:59:03;5.00;;;4.20;;
8139;SDS011;4111;50.972;7.072;2024-02-26T14:01:30;5.37;;;4.30;;
8139;SDS011;4111;50.972;7.072;2024-02-26T14:03:59;5.23;;;3.93;;
8139;SDS011;4111;50.972;7.072;2024-02-26T14:06:28;5.30;;;4.00;;
8139;SDS011;4111;50.972;7.072;2024-02-26T14:08:55;5.37;;;4.27;;
8139;SDS011;4111;50.972;7.072;2024-02-26T14:11:22;4.30;;;3.90;;
8139;SDS011;4111;50.972;7.072;2024-02-26T14:13:48;5.50;;;4.87;;
8139;SDS011;4111;50.972;7.072;2024-02-26T14:16:15;5.97;;;4.90;;
8139;SDS011;4111;50.972;7.072;2024-02-26T14:18:42;4.70;;;4.30;;
8139;SDS011;4111;50.972;7.072;2024-02-26T14:21:11;4.97;;;4.50;;
8139;SDS011;4111;50.972;7.072;2024-02-26T14:23:38;5.37;;;4.80;;
8139;SDS011;4111;50.972;7.072;2024-02-26T14:26:05;5.07;;;4.67;;
8139;SDS011;4111;50.972;7.072;2024-02-26T14:28:32;5.57;;;4.70;;
8139;SDS011;4111;50.972;7.072;2024-02-26T14:31:02;5.87;;;5.20;;
8139;SDS011;4111;50.972;7.072;2024-02-26T14:33:30;5.67;;;5.13;;
8139;SDS011;4111;50.972;7.072;2024-02-26T14:35:57;6.67;;;5.97;;
8139;SDS011;4111;50.972;7.072;2024-02-26T14:38:24;6.10;;;5.03;;
8139;SDS011;4111;50.972;7.072;2024-02-26T14:40:52;7.07;;;5.77;;
8139;SDS011;4111;50.972;7.072;2024-02-26T14:43:18;7.33;;;5.47;;
8139;SDS011;4111;50.972;7.072;2024-02-26T14:45:45;7.07;;;5.70;;
8139;SDS011;4111;50.972;7.072;2024-02-26T14:48:12;5.97;;;5.47;;
8139;SDS011;4111;50.972;7.072;2024-02-26T14:50:39;6.67;;;6.03;;
8139;SDS011;4111;50.972;7.072;2024-02-26T14:53:06;6.73;;;6.07;;
8139;SDS011;4111;50.972;7.072;2024-02-26T14:55:33;6.90;;;5.83;;
8139;SDS011;4111;50.972;7.072;2024-02-26T14:58:00;7.60;;;6.80;;
8139;SDS011;4111;50.972;7.072;2024-02-26T15:00:26;7.00;;;6.37;;
8139;SDS011;4111;50.972;7.072;2024-02-26T15:02:53;8.30;;;6.60;;
8139;SDS011;4111;50.972;7.072;2024-02-26T15:05:21;9.13;;;6.87;;
8139;SDS011;4111;50.972;7.072;2024-02-26T15:07:47;7.50;;;6.47;;
8139;SDS011;4111;50.972;7.072;2024-02-26T15:10:14;7.70;;;6.10;;
8139;SDS011;4111;50.972;7.072;2024-02-26T15:12:40;8.27;;;6.33;;
8139;SDS011;4111;50.972;7.072;2024-02-26T15:15:07;7.97;;;7.17;;
8139;SDS011;4111;50.972;7.072;2024-02-26T15:17:34;6.87;;;6.03;;
8139;SDS011;4111;50.972;7.072;2024-02-26T15:20:02;8.43;;;6.67;;
8139;SDS011;4111;50.972;7.072;2024-02-26T15:22:29;9.90;;;7.10;;
8139;SDS011;4111;50.972;7.072;2024-02-26T15:24:56;8.33;;;7.37;;
8139;SDS011;4111;50.972;7.072;2024-02-26T15:27:22;8.90;;;7.03;;